VKG8CB LICJ-LGKO
Flight info
| Callsign | VKG8CB |
|---|---|
| Flight time | 1h 35m |
| Altitude | 34000 |
| Route | PAL L869 PELEN DCT GIMEL DCT EKPAR DCT RUTOM UN604 ATV UL607 KEA UL995 KOPAR |
| Aircraft | A321/M-SDE3FGHIRWY/LB1 |
Departure
| Time | 2026-05-08 19:43 |
|---|---|
| Airport | Falcone–Borsellino Airport (LICJ) |
Arrival
| Time | 2026-05-08 21:19 |
|---|---|
| Airport | Kos International Airport "Ippokratis" (LGKO) |
| Time | Latitude | Longitude | Altitude | Speed | Heading |
|---|---|---|---|---|---|
| 2026-05-08 19:22 | 38.18531 | 13.10560 | 53 ft | 0 kts | 337° |
| 2026-05-08 19:34 | 38.18518 | 13.10567 | 26 ft | 4 kts | 341° |
| 2026-05-08 19:35 | 38.18492 | 13.10575 | 52 ft | 4 kts | 354° |
| 2026-05-08 19:35 | 38.18466 | 13.10574 | 48 ft | 4 kts | 25° |
| 2026-05-08 19:35 | 38.18453 | 13.10561 | 47 ft | 0 kts | 68° |
| 2026-05-08 19:37 | 38.18473 | 13.10622 | 52 ft | 15 kts | 67° |
| 2026-05-08 19:37 | 38.18507 | 13.10743 | 53 ft | 10 kts | 99° |
| 2026-05-08 19:38 | 38.18477 | 13.10849 | 53 ft | 14 kts | 109° |
| 2026-05-08 19:38 | 38.18435 | 13.10950 | 53 ft | 12 kts | 137° |
| 2026-05-08 19:38 | 38.18447 | 13.11060 | 52 ft | 15 kts | 67° |
| 2026-05-08 19:38 | 38.18486 | 13.11175 | 52 ft | 14 kts | 67° |
| 2026-05-08 19:39 | 38.18532 | 13.11311 | 52 ft | 18 kts | 66° |
| 2026-05-08 19:39 | 38.18581 | 13.11457 | 53 ft | 17 kts | 67° |
| 2026-05-08 19:39 | 38.18616 | 13.11599 | 53 ft | 16 kts | 90° |
| 2026-05-08 19:39 | 38.18606 | 13.11711 | 53 ft | 4 kts | 97° |
| 2026-05-08 19:40 | 38.18606 | 13.11712 | 49 ft | 0 kts | 97° |
| 2026-05-08 19:41 | 38.18606 | 13.11713 | 49 ft | 1 kts | 97° |
| 2026-05-08 19:41 | 38.18599 | 13.11793 | 53 ft | 15 kts | 97° |
| 2026-05-08 19:41 | 38.18561 | 13.11892 | 53 ft | 12 kts | 150° |
| 2026-05-08 19:42 | 38.18507 | 13.11851 | 53 ft | 10 kts | 248° |
| 2026-05-08 19:42 | 38.18500 | 13.11829 | 51 ft | 0 kts | 247° |
| 2026-05-08 19:42 | 38.18497 | 13.11820 | 52 ft | 7 kts | 247° |
| 2026-05-08 19:42 | 38.18379 | 13.11474 | 53 ft | 77 kts | 246° |
| 2026-05-08 19:43 | 38.18089 | 13.10612 | 48 ft | 132 kts | 247° |
| 2026-05-08 19:43 | 38.17670 | 13.09366 | 65 ft | 171 kts | 246° |
| 2026-05-08 19:43 | 38.17215 | 13.08005 | 655 ft | 166 kts | 247° |
| 2026-05-08 19:43 | 38.16763 | 13.06659 | 1256 ft | 166 kts | 248° |
| 2026-05-08 19:44 | 38.16308 | 13.05313 | 1810 ft | 167 kts | 249° |
| 2026-05-08 19:44 | 38.15864 | 13.03948 | 2334 ft | 168 kts | 255° |
| 2026-05-08 19:44 | 38.15981 | 13.02519 | 2773 ft | 166 kts | 305° |
| 2026-05-08 19:44 | 38.16854 | 13.01607 | 3262 ft | 164 kts | 330° |
| 2026-05-08 19:45 | 38.17703 | 13.00549 | 3491 ft | 184 kts | 304° |
| 2026-05-08 19:45 | 38.18423 | 12.99107 | 3638 ft | 202 kts | 303° |
| 2026-05-08 19:45 | 38.19177 | 12.97555 | 3943 ft | 210 kts | 302° |
| 2026-05-08 19:45 | 38.19942 | 12.95969 | 4432 ft | 210 kts | 302° |
| 2026-05-08 19:46 | 38.20708 | 12.94384 | 4943 ft | 211 kts | 302° |
| 2026-05-08 19:46 | 38.21478 | 12.92794 | 5438 ft | 211 kts | 302° |
| 2026-05-08 19:46 | 38.22765 | 12.90160 | 6289 ft | 210 kts | 301° |
| 2026-05-08 19:47 | 38.23536 | 12.88583 | 6770 ft | 210 kts | 301° |
| 2026-05-08 19:47 | 38.24307 | 12.87009 | 7256 ft | 209 kts | 301° |
| 2026-05-08 19:47 | 38.25073 | 12.85439 | 7733 ft | 208 kts | 300° |
| 2026-05-08 19:47 | 38.25841 | 12.83865 | 8002 ft | 209 kts | 300° |
| 2026-05-08 19:48 | 38.26862 | 12.81779 | 8623 ft | 208 kts | 300° |
| 2026-05-08 19:48 | 38.27379 | 12.80727 | 8969 ft | 207 kts | 299° |
| 2026-05-08 19:48 | 38.27813 | 12.79024 | 9413 ft | 205 kts | 269° |
| 2026-05-08 19:48 | 38.27305 | 12.77313 | 9748 ft | 221 kts | 234° |
| 2026-05-08 19:49 | 38.26050 | 12.76021 | 9922 ft | 241 kts | 222° |
| 2026-05-08 19:49 | 38.24656 | 12.74838 | 10386 ft | 245 kts | 220° |
| 2026-05-08 19:49 | 38.23192 | 12.73665 | 10899 ft | 248 kts | 216° |
| 2026-05-08 19:49 | 38.21497 | 12.73141 | 11360 ft | 269 kts | 183° |
| 2026-05-08 19:50 | 38.19657 | 12.73945 | 11647 ft | 301 kts | 149° |
| 2026-05-08 19:50 | 38.18067 | 12.75859 | 11777 ft | 330 kts | 133° |
| 2026-05-08 19:50 | 38.16680 | 12.78308 | 11916 ft | 354 kts | 125° |
| 2026-05-08 19:50 | 38.15366 | 12.81069 | 12047 ft | 375 kts | 122° |
| 2026-05-08 19:51 | 38.14023 | 12.84024 | 12174 ft | 395 kts | 122° |
| 2026-05-08 19:51 | 38.12646 | 12.87130 | 12298 ft | 414 kts | 117° |
| 2026-05-08 19:51 | 38.11598 | 12.90624 | 12445 ft | 431 kts | 111° |
| 2026-05-08 19:51 | 38.10555 | 12.94229 | 12849 ft | 438 kts | 112° |
| 2026-05-08 19:52 | 38.09462 | 12.97852 | 13367 ft | 441 kts | 113° |
| 2026-05-08 19:52 | 38.08340 | 13.01485 | 13888 ft | 444 kts | 113° |
| 2026-05-08 19:52 | 38.07205 | 13.05142 | 14336 ft | 447 kts | 114° |
| 2026-05-08 19:52 | 38.06067 | 13.08829 | 14784 ft | 450 kts | 114° |
| 2026-05-08 19:53 | 38.05045 | 13.12605 | 15179 ft | 456 kts | 106° |
| 2026-05-08 19:53 | 38.04510 | 13.16595 | 15591 ft | 462 kts | 95° |
| 2026-05-08 19:53 | 38.04519 | 13.20689 | 15995 ft | 467 kts | 85° |
| 2026-05-08 19:53 | 38.05073 | 13.24758 | 16349 ft | 470 kts | 74° |
| 2026-05-08 19:54 | 38.06027 | 13.28739 | 16730 ft | 473 kts | 71° |
| 2026-05-08 19:54 | 38.07005 | 13.32751 | 17135 ft | 477 kts | 72° |
| 2026-05-08 19:54 | 38.07980 | 13.36792 | 17528 ft | 482 kts | 72° |
| 2026-05-08 19:54 | 38.08960 | 13.40883 | 17944 ft | 486 kts | 72° |
| 2026-05-08 19:55 | 38.09941 | 13.45004 | 18343 ft | 490 kts | 72° |
| 2026-05-08 19:55 | 38.10929 | 13.49162 | 18711 ft | 493 kts | 72° |
| 2026-05-08 19:55 | 38.11924 | 13.53345 | 19124 ft | 496 kts | 72° |
| 2026-05-08 19:55 | 38.12925 | 13.57551 | 19517 ft | 498 kts | 72° |
| 2026-05-08 19:56 | 38.13914 | 13.61708 | 19894 ft | 501 kts | 72° |
| 2026-05-08 19:56 | 38.14925 | 13.65958 | 20262 ft | 503 kts | 72° |
| 2026-05-08 19:56 | 38.15940 | 13.70229 | 20634 ft | 506 kts | 72° |
| 2026-05-08 19:56 | 38.16961 | 13.74518 | 21002 ft | 509 kts | 72° |
| 2026-05-08 19:57 | 38.17985 | 13.78832 | 21376 ft | 511 kts | 72° |
| 2026-05-08 19:57 | 38.19010 | 13.83171 | 21740 ft | 514 kts | 72° |
| 2026-05-08 19:57 | 38.20036 | 13.87534 | 22088 ft | 516 kts | 72° |
| 2026-05-08 19:57 | 38.21067 | 13.91921 | 22459 ft | 519 kts | 72° |
| 2026-05-08 19:58 | 38.22098 | 13.96324 | 22808 ft | 521 kts | 72° |
| 2026-05-08 19:58 | 38.23134 | 14.00753 | 23154 ft | 523 kts | 72° |
| 2026-05-08 19:58 | 38.24176 | 14.05204 | 23496 ft | 526 kts | 72° |
| 2026-05-08 19:58 | 38.25219 | 14.09676 | 23784 ft | 528 kts | 72° |
| 2026-05-08 19:59 | 38.26262 | 14.14167 | 24083 ft | 531 kts | 72° |
| 2026-05-08 19:59 | 38.27311 | 14.18683 | 24392 ft | 533 kts | 72° |
| 2026-05-08 19:59 | 38.28363 | 14.23208 | 24686 ft | 534 kts | 72° |
| 2026-05-08 19:59 | 38.29419 | 14.27746 | 25002 ft | 536 kts | 71° |
| 2026-05-08 20:00 | 38.30478 | 14.32303 | 25292 ft | 537 kts | 72° |
| 2026-05-08 20:00 | 38.31533 | 14.36875 | 25564 ft | 539 kts | 72° |
| 2026-05-08 20:00 | 38.32579 | 14.41447 | 25936 ft | 537 kts | 72° |
| 2026-05-08 20:00 | 38.33470 | 14.46068 | 26325 ft | 537 kts | 79° |
| 2026-05-08 20:01 | 38.33940 | 14.50781 | 26691 ft | 537 kts | 83° |
| 2026-05-08 20:01 | 38.34335 | 14.55508 | 27073 ft | 535 kts | 83° |
| 2026-05-08 20:01 | 38.34727 | 14.60159 | 27450 ft | 534 kts | 83° |
| 2026-05-08 20:01 | 38.35129 | 14.64867 | 27827 ft | 533 kts | 83° |
| 2026-05-08 20:02 | 38.35533 | 14.69558 | 28206 ft | 532 kts | 83° |
| 2026-05-08 20:02 | 38.35932 | 14.74236 | 28581 ft | 531 kts | 83° |
| 2026-05-08 20:02 | 38.36326 | 14.78912 | 28957 ft | 530 kts | 83° |
| 2026-05-08 20:02 | 38.36713 | 14.83576 | 29329 ft | 529 kts | 83° |
| 2026-05-08 20:03 | 38.37095 | 14.88229 | 29702 ft | 528 kts | 83° |
| 2026-05-08 20:03 | 38.37474 | 14.92880 | 30055 ft | 527 kts | 83° |
| 2026-05-08 20:03 | 38.37848 | 14.97519 | 30394 ft | 525 kts | 83° |
| 2026-05-08 20:03 | 38.38219 | 15.02134 | 30747 ft | 524 kts | 83° |
| 2026-05-08 20:04 | 38.38593 | 15.06755 | 31000 ft | 524 kts | 83° |
| 2026-05-08 20:04 | 38.38970 | 15.11379 | 31258 ft | 525 kts | 83° |
| 2026-05-08 20:04 | 38.39348 | 15.16013 | 31523 ft | 526 kts | 83° |
| 2026-05-08 20:04 | 38.39724 | 15.20653 | 31791 ft | 526 kts | 83° |
| 2026-05-08 20:05 | 38.40095 | 15.25294 | 32075 ft | 527 kts | 83° |
| 2026-05-08 20:05 | 38.40462 | 15.29939 | 32331 ft | 527 kts | 83° |
| 2026-05-08 20:05 | 38.40826 | 15.34593 | 32595 ft | 528 kts | 83° |
| 2026-05-08 20:05 | 38.41188 | 15.39254 | 32867 ft | 528 kts | 83° |
| 2026-05-08 20:06 | 38.41551 | 15.43916 | 33137 ft | 529 kts | 83° |
| 2026-05-08 20:06 | 38.41914 | 15.48582 | 33411 ft | 529 kts | 83° |
| 2026-05-08 20:06 | 38.42278 | 15.53256 | 33688 ft | 529 kts | 83° |
| 2026-05-08 20:06 | 38.42637 | 15.57927 | 33941 ft | 530 kts | 83° |
| 2026-05-08 20:07 | 38.42995 | 15.62614 | 34042 ft | 531 kts | 83° |
| 2026-05-08 20:07 | 38.43352 | 15.67301 | 34053 ft | 530 kts | 83° |
| 2026-05-08 20:07 | 38.44059 | 15.76630 | 34055 ft | 528 kts | 83° |
| 2026-05-08 20:08 | 38.44750 | 15.85943 | 34058 ft | 527 kts | 83° |
| 2026-05-08 20:08 | 38.45435 | 15.95257 | 34061 ft | 527 kts | 83° |
| 2026-05-08 20:09 | 38.46111 | 16.04580 | 34067 ft | 527 kts | 84° |
| 2026-05-08 20:09 | 38.46517 | 16.13843 | 34090 ft | 526 kts | 88° |
| 2026-05-08 20:10 | 38.46589 | 16.23182 | 34082 ft | 526 kts | 89° |
| 2026-05-08 20:10 | 38.46629 | 16.32508 | 34078 ft | 526 kts | 89° |
| 2026-05-08 20:11 | 38.46754 | 16.41831 | 34073 ft | 526 kts | 88° |
| 2026-05-08 20:11 | 38.46918 | 16.51161 | 34056 ft | 526 kts | 88° |
| 2026-05-08 20:12 | 38.47071 | 16.60495 | 34053 ft | 527 kts | 88° |
| 2026-05-08 20:12 | 38.47200 | 16.69847 | 34058 ft | 527 kts | 88° |
| 2026-05-08 20:13 | 38.47315 | 16.79199 | 34048 ft | 527 kts | 88° |
| 2026-05-08 20:13 | 38.47426 | 16.88547 | 34058 ft | 527 kts | 88° |
| 2026-05-08 20:14 | 38.47550 | 16.97901 | 34055 ft | 527 kts | 88° |
| 2026-05-08 20:14 | 38.47812 | 17.06978 | 34057 ft | 527 kts | 86° |
| 2026-05-08 20:15 | 38.48136 | 17.16257 | 34062 ft | 527 kts | 86° |
| 2026-05-08 20:15 | 38.48417 | 17.25602 | 34058 ft | 527 kts | 87° |
| 2026-05-08 20:16 | 38.48662 | 17.34949 | 34050 ft | 527 kts | 87° |
| 2026-05-08 20:16 | 38.48893 | 17.44298 | 34071 ft | 527 kts | 87° |
| 2026-05-08 20:17 | 38.49127 | 17.53642 | 34062 ft | 526 kts | 87° |
| 2026-05-08 20:17 | 38.49359 | 17.62986 | 34055 ft | 526 kts | 87° |
| 2026-05-08 20:18 | 38.49576 | 17.72318 | 34053 ft | 526 kts | 87° |
| 2026-05-08 20:18 | 38.49782 | 17.81655 | 34051 ft | 526 kts | 87° |
| 2026-05-08 20:19 | 38.49987 | 17.90995 | 34058 ft | 526 kts | 87° |
| 2026-05-08 20:19 | 38.50186 | 18.00268 | 34058 ft | 526 kts | 87° |
| 2026-05-08 20:20 | 38.50381 | 18.09594 | 34058 ft | 526 kts | 87° |
| 2026-05-08 20:20 | 38.50566 | 18.18924 | 34055 ft | 526 kts | 87° |
| 2026-05-08 20:21 | 38.50743 | 18.28249 | 34055 ft | 526 kts | 87° |
| 2026-05-08 20:21 | 38.50908 | 18.37581 | 34058 ft | 526 kts | 87° |
| 2026-05-08 20:22 | 38.51062 | 18.46905 | 34063 ft | 525 kts | 87° |
| 2026-05-08 20:22 | 38.51186 | 18.54716 | 34055 ft | 525 kts | 87° |
| 2026-05-08 20:23 | 38.51358 | 18.65558 | 34058 ft | 525 kts | 87° |
| 2026-05-08 20:23 | 38.51502 | 18.74882 | 34074 ft | 525 kts | 87° |
| 2026-05-08 20:24 | 38.51637 | 18.84207 | 34065 ft | 525 kts | 87° |
| 2026-05-08 20:24 | 38.51756 | 18.93539 | 34066 ft | 525 kts | 87° |
| 2026-05-08 20:25 | 38.51380 | 19.02846 | 34063 ft | 526 kts | 100° |
| 2026-05-08 20:25 | 38.49940 | 19.11947 | 34060 ft | 526 kts | 101° |
| 2026-05-08 20:26 | 38.48479 | 19.21169 | 34054 ft | 527 kts | 101° |
| 2026-05-08 20:26 | 38.47039 | 19.30272 | 34056 ft | 527 kts | 101° |
| 2026-05-08 20:27 | 38.45575 | 19.39433 | 34060 ft | 527 kts | 101° |
| 2026-05-08 20:27 | 38.44088 | 19.48586 | 34070 ft | 527 kts | 101° |
| 2026-05-08 20:28 | 38.42599 | 19.57734 | 34070 ft | 527 kts | 101° |
| 2026-05-08 20:28 | 38.41111 | 19.66883 | 34070 ft | 527 kts | 101° |
| 2026-05-08 20:29 | 38.39613 | 19.76024 | 34068 ft | 527 kts | 102° |
| 2026-05-08 20:29 | 38.38105 | 19.85169 | 34069 ft | 527 kts | 101° |
| 2026-05-08 20:30 | 38.36592 | 19.94300 | 34073 ft | 527 kts | 101° |
| 2026-05-08 20:30 | 38.35074 | 20.03430 | 34073 ft | 527 kts | 101° |
| 2026-05-08 20:31 | 38.33551 | 20.12552 | 34078 ft | 527 kts | 102° |
| 2026-05-08 20:31 | 38.32026 | 20.21618 | 34078 ft | 527 kts | 102° |
| 2026-05-08 20:32 | 38.30560 | 20.30749 | 34081 ft | 527 kts | 99° |
| 2026-05-08 20:32 | 38.29409 | 20.39958 | 34089 ft | 526 kts | 97° |
| 2026-05-08 20:33 | 38.28352 | 20.49171 | 34087 ft | 526 kts | 97° |
| 2026-05-08 20:33 | 38.27218 | 20.58376 | 34082 ft | 526 kts | 98° |
| 2026-05-08 20:34 | 38.26004 | 20.67553 | 34088 ft | 526 kts | 98° |
| 2026-05-08 20:35 | 38.24163 | 20.81334 | 34092 ft | 526 kts | 98° |
| 2026-05-08 20:35 | 38.23158 | 20.88964 | 34099 ft | 526 kts | 98° |
| 2026-05-08 20:36 | 38.21947 | 20.98146 | 34091 ft | 526 kts | 98° |
| 2026-05-08 20:36 | 38.20720 | 21.07329 | 34099 ft | 527 kts | 98° |
| 2026-05-08 20:37 | 38.19490 | 21.16516 | 34118 ft | 527 kts | 98° |
| 2026-05-08 20:37 | 38.18258 | 21.25693 | 34119 ft | 527 kts | 98° |
| 2026-05-08 20:38 | 38.17009 | 21.34861 | 34116 ft | 527 kts | 98° |
| 2026-05-08 20:38 | 38.15745 | 21.44029 | 34120 ft | 527 kts | 99° |
| 2026-05-08 20:39 | 38.14391 | 21.53188 | 34122 ft | 527 kts | 100° |
| 2026-05-08 20:39 | 38.12972 | 21.62324 | 34131 ft | 527 kts | 100° |
| 2026-05-08 20:40 | 38.11552 | 21.71452 | 34122 ft | 527 kts | 100° |
| 2026-05-08 20:40 | 38.10143 | 21.80586 | 34124 ft | 527 kts | 100° |
| 2026-05-08 20:41 | 38.08734 | 21.89717 | 34134 ft | 527 kts | 100° |
| 2026-05-08 20:41 | 38.07317 | 21.98829 | 34131 ft | 526 kts | 100° |
| 2026-05-08 20:42 | 38.05892 | 22.07935 | 34130 ft | 526 kts | 100° |
| 2026-05-08 20:42 | 38.04464 | 22.16970 | 34126 ft | 526 kts | 100° |
| 2026-05-08 20:43 | 38.03022 | 22.26059 | 34135 ft | 525 kts | 100° |
| 2026-05-08 20:43 | 38.01582 | 22.35123 | 34136 ft | 524 kts | 101° |
| 2026-05-08 20:44 | 38.00123 | 22.44244 | 34134 ft | 524 kts | 101° |
| 2026-05-08 20:44 | 37.98671 | 22.53279 | 34138 ft | 522 kts | 101° |
| 2026-05-08 20:45 | 37.97227 | 22.62236 | 34136 ft | 521 kts | 101° |
| 2026-05-08 20:45 | 37.95812 | 22.71234 | 34133 ft | 520 kts | 99° |
| 2026-05-08 20:46 | 37.94648 | 22.80276 | 34137 ft | 520 kts | 97° |
| 2026-05-08 20:46 | 37.93587 | 22.89339 | 34129 ft | 520 kts | 97° |
| 2026-05-08 20:47 | 37.92852 | 22.98425 | 34125 ft | 518 kts | 91° |
| 2026-05-08 20:47 | 37.92433 | 23.07538 | 34148 ft | 518 kts | 92° |
| 2026-05-08 20:48 | 37.92002 | 23.16649 | 34128 ft | 519 kts | 92° |
| 2026-05-08 20:48 | 37.91570 | 23.25770 | 34114 ft | 519 kts | 92° |
| 2026-05-08 20:49 | 37.91136 | 23.34894 | 34112 ft | 519 kts | 92° |
| 2026-05-08 20:49 | 37.90697 | 23.44029 | 34130 ft | 520 kts | 93° |
| 2026-05-08 20:50 | 37.90256 | 23.53170 | 34104 ft | 521 kts | 93° |
| 2026-05-08 20:50 | 37.89803 | 23.62331 | 34092 ft | 522 kts | 93° |
| 2026-05-08 20:51 | 37.89300 | 23.71495 | 34090 ft | 522 kts | 97° |
| 2026-05-08 20:51 | 37.87450 | 23.80332 | 34102 ft | 519 kts | 116° |
| 2026-05-08 20:52 | 37.83764 | 23.88074 | 34090 ft | 511 kts | 134° |
| 2026-05-08 20:52 | 37.79193 | 23.94929 | 34093 ft | 510 kts | 134° |
| 2026-05-08 20:53 | 37.74614 | 24.01787 | 34100 ft | 511 kts | 134° |
| 2026-05-08 20:53 | 37.70025 | 24.08637 | 34046 ft | 511 kts | 135° |
| 2026-05-08 20:54 | 37.65448 | 24.15438 | 34105 ft | 512 kts | 134° |
| 2026-05-08 20:54 | 37.60829 | 24.22292 | 34129 ft | 512 kts | 134° |
| 2026-05-08 20:55 | 37.56483 | 24.29430 | 34135 ft | 517 kts | 123° |
| 2026-05-08 20:55 | 37.53667 | 24.37784 | 34117 ft | 521 kts | 109° |
| 2026-05-08 20:56 | 37.51432 | 24.46460 | 34116 ft | 520 kts | 109° |
| 2026-05-08 20:56 | 37.49161 | 24.55105 | 34118 ft | 520 kts | 110° |
| 2026-05-08 20:57 | 37.46886 | 24.63736 | 34115 ft | 519 kts | 110° |
| 2026-05-08 20:57 | 37.44614 | 24.72371 | 34117 ft | 520 kts | 110° |
| 2026-05-08 20:58 | 37.42338 | 24.81002 | 34115 ft | 520 kts | 110° |
| 2026-05-08 20:58 | 37.40059 | 24.89627 | 34116 ft | 520 kts | 110° |
| 2026-05-08 20:59 | 37.37768 | 24.98250 | 34127 ft | 520 kts | 110° |
| 2026-05-08 20:59 | 37.35468 | 25.06864 | 34123 ft | 520 kts | 110° |
| 2026-05-08 21:00 | 37.33170 | 25.15486 | 34121 ft | 519 kts | 110° |
| 2026-05-08 21:00 | 37.30881 | 25.24035 | 34126 ft | 519 kts | 110° |
| 2026-05-08 21:01 | 37.28563 | 25.32628 | 34127 ft | 519 kts | 110° |
| 2026-05-08 21:01 | 37.26142 | 25.41232 | 34113 ft | 518 kts | 113° |
| 2026-05-08 21:02 | 37.23449 | 25.49549 | 34114 ft | 518 kts | 115° |
| 2026-05-08 21:02 | 37.20617 | 25.57857 | 34098 ft | 518 kts | 116° |
| 2026-05-08 21:02 | 37.19192 | 25.62013 | 33412 ft | 521 kts | 116° |
| 2026-05-08 21:03 | 37.17750 | 25.66247 | 32137 ft | 532 kts | 115° |
| 2026-05-08 21:03 | 37.16305 | 25.70540 | 31110 ft | 536 kts | 115° |
| 2026-05-08 21:03 | 37.14862 | 25.74869 | 30082 ft | 539 kts | 114° |
| 2026-05-08 21:03 | 37.13414 | 25.79232 | 29033 ft | 541 kts | 114° |
| 2026-05-08 21:04 | 37.11974 | 25.83568 | 28057 ft | 540 kts | 114° |
| 2026-05-08 21:04 | 37.10523 | 25.87919 | 26970 ft | 541 kts | 114° |
| 2026-05-08 21:04 | 37.09065 | 25.92265 | 25884 ft | 542 kts | 114° |
| 2026-05-08 21:04 | 37.07597 | 25.96615 | 24781 ft | 543 kts | 115° |
| 2026-05-08 21:05 | 37.06125 | 26.00971 | 23789 ft | 542 kts | 114° |
| 2026-05-08 21:05 | 37.04673 | 26.05273 | 23090 ft | 532 kts | 114° |
| 2026-05-08 21:05 | 37.03245 | 26.09501 | 22380 ft | 524 kts | 115° |
| 2026-05-08 21:05 | 37.01833 | 26.13672 | 21661 ft | 517 kts | 114° |
| 2026-05-08 21:06 | 37.00440 | 26.17783 | 20964 ft | 509 kts | 114° |
| 2026-05-08 21:06 | 36.99065 | 26.21834 | 20250 ft | 503 kts | 114° |
| 2026-05-08 21:06 | 36.97703 | 26.25835 | 19553 ft | 496 kts | 115° |
| 2026-05-08 21:06 | 36.96362 | 26.29775 | 18900 ft | 490 kts | 114° |
| 2026-05-08 21:07 | 36.95040 | 26.33675 | 18219 ft | 484 kts | 114° |
| 2026-05-08 21:07 | 36.93734 | 26.37530 | 17474 ft | 478 kts | 114° |
| 2026-05-08 21:07 | 36.92442 | 26.41343 | 16761 ft | 472 kts | 114° |
| 2026-05-08 21:07 | 36.91183 | 26.45045 | 16087 ft | 467 kts | 114° |
| 2026-05-08 21:08 | 36.89918 | 26.48761 | 15411 ft | 461 kts | 114° |
| 2026-05-08 21:08 | 36.88669 | 26.52422 | 14746 ft | 456 kts | 114° |
| 2026-05-08 21:08 | 36.87413 | 26.56091 | 14084 ft | 451 kts | 114° |
| 2026-05-08 21:08 | 36.86200 | 26.59621 | 13381 ft | 446 kts | 114° |
| 2026-05-08 21:09 | 36.84991 | 26.63144 | 12945 ft | 434 kts | 114° |
| 2026-05-08 21:09 | 36.83821 | 26.66525 | 12813 ft | 415 kts | 116° |
| 2026-05-08 21:09 | 36.82398 | 26.69566 | 12689 ft | 398 kts | 127° |
| 2026-05-08 21:09 | 36.80661 | 26.72152 | 12551 ft | 381 kts | 134° |
| 2026-05-08 21:10 | 36.78917 | 26.74555 | 12433 ft | 367 kts | 134° |
| 2026-05-08 21:10 | 36.77232 | 26.76874 | 12307 ft | 354 kts | 134° |
| 2026-05-08 21:10 | 36.75607 | 26.79112 | 12179 ft | 342 kts | 134° |
| 2026-05-08 21:10 | 36.74031 | 26.81279 | 12017 ft | 332 kts | 134° |
| 2026-05-08 21:11 | 36.72489 | 26.83397 | 11695 ft | 329 kts | 134° |
| 2026-05-08 21:11 | 36.70956 | 26.85500 | 11329 ft | 327 kts | 134° |
| 2026-05-08 21:11 | 36.69500 | 26.87663 | 10957 ft | 326 kts | 124° |
| 2026-05-08 21:11 | 36.68412 | 26.90140 | 10563 ft | 325 kts | 116° |
| 2026-05-08 21:12 | 36.67414 | 26.92663 | 10175 ft | 324 kts | 116° |
| 2026-05-08 21:12 | 36.66415 | 26.95172 | 9805 ft | 323 kts | 116° |
| 2026-05-08 21:12 | 36.65419 | 26.97664 | 9431 ft | 320 kts | 116° |
| 2026-05-08 21:12 | 36.64429 | 27.00136 | 9066 ft | 317 kts | 116° |
| 2026-05-08 21:13 | 36.63446 | 27.02580 | 8693 ft | 315 kts | 117° |
| 2026-05-08 21:13 | 36.62448 | 27.05055 | 7886 ft | 327 kts | 117° |
| 2026-05-08 21:13 | 36.61406 | 27.07639 | 7031 ft | 340 kts | 117° |
| 2026-05-08 21:13 | 36.60342 | 27.10284 | 6141 ft | 341 kts | 117° |
| 2026-05-08 21:14 | 36.59713 | 27.13034 | 5550 ft | 322 kts | 90° |
| 2026-05-08 21:14 | 36.60077 | 27.15654 | 5146 ft | 300 kts | 70° |
| 2026-05-08 21:14 | 36.60772 | 27.18025 | 4717 ft | 282 kts | 69° |
| 2026-05-08 21:14 | 36.61758 | 27.20028 | 4237 ft | 267 kts | 39° |
| 2026-05-08 21:15 | 36.63368 | 27.20932 | 3838 ft | 250 kts | 1° |
| 2026-05-08 21:15 | 36.64956 | 27.20477 | 3528 ft | 228 kts | 327° |
| 2026-05-08 21:15 | 36.66258 | 27.19435 | 3220 ft | 219 kts | 325° |
| 2026-05-08 21:15 | 36.67509 | 27.18434 | 2957 ft | 208 kts | 325° |
| 2026-05-08 21:16 | 36.68688 | 27.17500 | 2658 ft | 194 kts | 325° |
| 2026-05-08 21:16 | 36.69768 | 27.16650 | 2416 ft | 173 kts | 326° |
| 2026-05-08 21:16 | 36.70757 | 27.15883 | 2180 ft | 163 kts | 326° |
| 2026-05-08 21:16 | 36.71704 | 27.15148 | 1971 ft | 159 kts | 326° |
| 2026-05-08 21:17 | 36.72635 | 27.14426 | 1765 ft | 156 kts | 326° |
| 2026-05-08 21:17 | 36.73553 | 27.13712 | 1552 ft | 155 kts | 326° |
| 2026-05-08 21:17 | 36.74448 | 27.13015 | 1353 ft | 153 kts | 326° |
| 2026-05-08 21:17 | 36.75347 | 27.12313 | 1154 ft | 151 kts | 327° |
| 2026-05-08 21:18 | 36.76235 | 27.11633 | 942 ft | 149 kts | 328° |
| 2026-05-08 21:18 | 36.77108 | 27.10958 | 734 ft | 147 kts | 327° |
| 2026-05-08 21:18 | 36.77962 | 27.10283 | 560 ft | 144 kts | 327° |
| 2026-05-08 21:18 | 36.78808 | 27.09621 | 401 ft | 141 kts | 328° |
| 2026-05-08 21:19 | 36.79546 | 27.09046 | 414 ft | 96 kts | 328° |
| 2026-05-08 21:19 | 36.79919 | 27.08755 | 410 ft | 44 kts | 328° |
| 2026-05-08 21:19 | 36.80111 | 27.08606 | 412 ft | 26 kts | 328° |
| 2026-05-08 21:19 | 36.80261 | 27.08489 | 413 ft | 24 kts | 328° |
| 2026-05-08 21:20 | 36.80348 | 27.08470 | 416 ft | 13 kts | 49° |
| 2026-05-08 21:20 | 36.80340 | 27.08587 | 419 ft | 13 kts | 104° |
| 2026-05-08 21:20 | 36.80317 | 27.08676 | 411 ft | 9 kts | 121° |
| 2026-05-08 21:20 | 36.80250 | 27.08736 | 418 ft | 16 kts | 148° |
| 2026-05-08 21:21 | 36.80155 | 27.08809 | 413 ft | 12 kts | 147° |
| 2026-05-08 21:21 | 36.80122 | 27.08837 | 414 ft | 8 kts | 146° |
| 2026-05-08 21:21 | 36.80119 | 27.08874 | 416 ft | 7 kts | 62° |
| 2026-05-08 21:21 | 36.80143 | 27.08921 | 410 ft | 3 kts | 58° |
| 2026-05-08 21:22 | 36.80147 | 27.08929 | 413 ft | 0 kts | 58° |